Bei Facebook empfehlenBei Twitter postenGoogle plusPinterest

Das Wetter im Erzgebirge am 18.03.2015

Wetter und Klima am 18.03.2015 Holzhau im Erzgebirge (630m ü.NN)
Letzte gemessene Temperatur und Uhrzeit der Messung23:45:00 Uhr-0.60 °C
Temperatur (Maximum / Höchstwert) und Uhrzeit der Messung14:15:00 Uhr12.90 °C
Temperatur (Minimum / Tiefstwert) und Uhrzeit der Messung23:00:00-0.90 °C
Errechneter Absolutwert der Temperaturschwankungen zwischen Tmin und Tmax des Tages13.80 K
Errechnete Tagesmitteltemperatur6.18854 °C
Gesamt - Niederschlag des Tages (in flüssiger Form)0.00 Liter / m²
Luftdruck (Maximum / Höchstwert) und Zeitpunkt der Messung01:00:00 Uhr1023.90 hPa
Luftdruck (Minimum / Tiefstwert) und Zeitpunkt der Messung17:00:00 Uhr1022.00 hPa
Errechneter Absolutwert der Luftdruckschwankungen des Tages1.90 hPa
Höchste gemessene Windgeschwindigkeit und Uhrzeit der Messung11:45:00 Uhr16.92 km/h
Errechnete Windhäufigkeit in Relation zu den Messwerten des Tages20.83333 %
Niedrigste Windkühle (Windchill) und Zeitpunkt der Messung23:00:00 Uhr-0.90 °C
Taupunkt (Maximum / Höchstwert) und Uhrzeit der Messung13:15:00 Uhr3.30 °C
Taupunkt (Minimum / Tiefstwert) und Uhrzeit der Messung23:00:00-3.70 °C
Anzahl der automatisch eingelesenen Messwerte 96

Detaillierte Wetter- und Klima- Messwerte für den 18.03.2015 in Holzhau im Erzgebirge (630m ü.NN)
ZeitTemperaturLuftdruckRel. LuftfeuchteWindWindrichtungWindchillTaupunktNiederschlag l/m²
23:45:00-0.60 °C1022.20 hPa84.00 %-3.20 °C 
23:30:00-0.40 °C1022.40 hPa84.00 %-3.00 °C 
23:15:00-0.70 °C1022.50 hPa84.00 %-3.30 °C 
23:00:00-0.90 °C1022.50 hPa83.00 %-3.70 °C 
22:45:00-0.70 °C1022.40 hPa84.00 %-3.30 °C 
22:30:00-0.80 °C1022.50 hPa84.00 %-3.40 °C 
22:15:00-0.80 °C1022.50 hPa83.00 %-3.60 °C 
22:00:00-0.60 °C1022.50 hPa83.00 %-3.40 °C 
21:45:00-0.50 °C1022.30 hPa83.00 %-3.30 °C 
21:30:00-0.40 °C1022.60 hPa82.00 %-3.40 °C 
21:15:00-0.40 °C1022.60 hPa81.00 %-3.60 °C 
21:00:00-0.10 °C1022.60 hPa81.00 %-3.30 °C 
20:45:000.30 °C1022.80 hPa80.00 %-2.70 °C 
20:30:000.50 °C1022.70 hPa79.00 %-2.70 °C 
20:15:000.90 °C1022.60 hPa78.00 %-2.50 °C 
20:00:001.50 °C1022.70 hPa77.00 %-2.10 °C 
19:45:001.90 °C1022.70 hPa77.00 %-1.70 °C 
19:30:002.30 °C1022.60 hPa75.00 %-1.70 °C 
19:15:002.80 °C1022.50 hPa74.00 %-1.40 °C 
19:00:003.30 °C1022.30 hPa72.00 %-1.30 °C 
18:45:003.90 °C1022.40 hPa69.00 %-1.30 °C 
18:30:004.90 °C1022.30 hPa67.00 %-0.70 °C 
18:15:006.00 °C1022.30 hPa63.00 %-0.50 °C 
18:00:007.60 °C1022.20 hPa60.00 %0.30 °C 
17:45:009.40 °C1022.20 hPa55.00 %0.80 °C 
17:30:0010.60 °C1022.20 hPa52.00 %1.20 °C 
17:15:0011.20 °C1022.20 hPa51.00 %1.50 °C 
17:00:0011.30 °C1022.00 hPa50.00 %1.30 °C 
16:45:0011.60 °C1022.00 hPa49.00 %1.30 °C 
16:30:0012.10 °C1022.00 hPa49.00 %1.70 °C 
16:15:0012.20 °C1022.10 hPa49.00 %3.60 km/hSSW12.20 °C1.80 °C 
16:00:0012.10 °C1022.20 hPa48.00 %1.40 °C 
15:45:0012.60 °C1022.30 hPa47.00 %6.12 km/hSO12.40 °C1.60 °C 
15:30:0012.80 °C1022.30 hPa50.00 %2.60 °C 
15:15:0012.70 °C1022.30 hPa49.00 %2.30 °C 
15:00:0012.30 °C1022.40 hPa50.00 %2.20 °C 
14:45:0012.70 °C1022.50 hPa49.00 %2.30 °C 
14:30:0012.80 °C1022.60 hPa50.00 %2.60 °C 
14:15:0012.90 °C1022.50 hPa50.00 %2.70 °C 
14:00:0012.70 °C1022.60 hPa50.00 %5.76 km/hS12.60 °C2.60 °C 
13:45:0012.90 °C1022.70 hPa49.00 %2.50 °C 
13:30:0012.90 °C1022.70 hPa50.00 %5.40 km/hS12.90 °C2.70 °C 
13:15:0012.90 °C1022.70 hPa52.00 %3.30 °C 
13:00:0012.50 °C1022.90 hPa52.00 %2.90 °C 
12:45:0012.10 °C1023.10 hPa54.00 %3.10 °C 
12:30:0011.80 °C1023.00 hPa55.00 %3.10 °C 
12:15:0011.40 °C1023.10 hPa56.00 %2.90 °C 
12:00:0010.90 °C1023.20 hPa56.00 %5.40 km/hOSO10.70 °C2.50 °C 
11:45:0010.80 °C1023.30 hPa56.00 %16.92 km/hOSO8.70 °C2.40 °C 
11:30:0010.70 °C1023.40 hPa56.00 %1.08 km/hSO10.70 °C2.30 °C 
11:15:0010.80 °C1023.30 hPa56.00 %2.40 °C 
11:00:0010.50 °C1023.30 hPa58.00 %2.60 °C 
10:45:0010.10 °C1023.30 hPa59.00 %2.50 °C 
10:30:009.90 °C1023.40 hPa58.00 %2.00 °C 
10:15:0010.20 °C1023.40 hPa59.00 %2.60 °C 
10:00:0010.10 °C1023.60 hPa60.00 %2.70 °C 
09:45:009.60 °C1023.50 hPa61.00 %2.50 °C 
09:30:009.10 °C1023.50 hPa62.00 %6.12 km/hS8.40 °C2.20 °C 
09:15:008.50 °C1023.30 hPa65.00 %2.30 °C 
09:00:007.60 °C1023.20 hPa66.00 %1.70 °C 
08:45:006.80 °C1023.30 hPa68.00 %1.30 °C 
08:30:005.90 °C1023.30 hPa70.00 %0.90 °C 
08:15:005.20 °C1023.30 hPa71.00 %0.40 °C 
08:00:004.40 °C1023.20 hPa73.00 %0.00 °C 
07:45:003.80 °C1023.30 hPa75.00 %-0.20 °C 
07:30:003.20 °C1023.20 hPa77.00 %6.12 km/hO1.60 °C-0.40 °C 
07:15:003.20 °C1023.00 hPa77.00 %8.64 km/hONO0.80 °C-0.40 °C 
07:00:003.30 °C1023.00 hPa76.00 %10.08 km/hSO0.60 °C-0.50 °C 
06:45:003.40 °C1022.90 hPa76.00 %-0.40 °C 
06:30:003.40 °C1022.80 hPa77.00 %10.08 km/hOSO0.70 °C-0.20 °C 
06:15:003.30 °C1022.80 hPa77.00 %11.16 km/hOSO0.40 °C-0.30 °C 
06:00:003.30 °C1022.60 hPa76.00 %-0.50 °C 
05:45:003.60 °C1022.70 hPa76.00 %-0.20 °C 
05:30:003.80 °C1022.80 hPa76.00 %0.00 °C 
05:15:004.10 °C1022.60 hPa76.00 %3.96 km/hO4.10 °C0.30 °C 
05:00:004.30 °C1022.60 hPa76.00 %4.68 km/hO4.30 °C0.50 °C 
04:45:004.30 °C1022.60 hPa76.00 %0.50 °C 
04:30:004.10 °C1022.70 hPa76.00 %0.30 °C 
04:15:004.20 °C1022.80 hPa76.00 %0.40 °C 
04:00:004.20 °C1022.80 hPa76.00 %0.40 °C 
03:45:004.20 °C1022.90 hPa76.00 %0.40 °C 
03:30:004.10 °C1022.70 hPa76.00 %0.30 °C 
03:15:004.30 °C1022.90 hPa76.00 %5.76 km/hOSO3.00 °C0.50 °C 
03:00:004.40 °C1023.10 hPa75.00 %0.40 °C 
02:45:004.40 °C1023.00 hPa75.00 %13.32 km/hOSO1.30 °C0.40 °C 
02:30:004.40 °C1023.10 hPa74.00 %14.76 km/hOSO1.00 °C0.20 °C 
02:15:004.50 °C1023.20 hPa73.00 %0.10 °C 
02:00:004.60 °C1023.30 hPa72.00 %0.00 °C 
01:45:004.80 °C1023.30 hPa71.00 %6.12 km/hOSO3.50 °C0.00 °C 
01:30:005.00 °C1023.40 hPa71.00 %0.20 °C 
01:15:005.00 °C1023.80 hPa70.00 %0.00 °C 
01:00:005.10 °C1023.90 hPa70.00 %0.10 °C 
00:45:005.10 °C1023.60 hPa69.00 %-0.10 °C 
00:30:005.20 °C1023.90 hPa68.00 %-0.20 °C 
00:15:005.30 °C1023.60 hPa67.00 %7.92 km/hNNO3.50 °C-0.30 °C 
00:00:005.60 °C1023.50 hPa66.00 %-0.20 °C 

Permanenter Link zu dieser Seite: Wetter im Erzgebirge am 18.03.2015
Performance-Info: Die Erstellung der Seite / Statistik(en) / Tabelle(n) erforderte 5 Datenbankserver-Abfrage(n) und dauerte 124 Millisekunden. (Dieser Messwert ist von der Gesamt-Auslastung des Servers abhängig.)
Erzgebirge - Wetter | Erzgebirge - Wetter (Mobilgeräte) | Komplette Klimadatenbank